Time;durP1;ratioP1;P1;durP2;ratioP2;P2;SDS_P1;SDS_P2;PMS_P1;PMS_P2;Temp;Humidity;BMP_temperature;BMP_pressure;BME280_temperature;BME280_humidity;BME280_pressure;Samples;Min_cycle;Max_cycle;Signal;HPM_P1;HPM_P2
2024/01/18 06:00:05;;;;;;;4.17;1.07;;;;;;;;;;1734899;28;20759;-78
2024/01/18 06:00:56;;;;;;;1.45;1.00;;;;;;;;;;1735019;28;20684;-81
2024/01/18 06:01:47;;;;;;;2.70;0.80;;;;;;;;;;1735102;28;20184;-81
2024/01/18 06:02:39;;;;;;;2.47;1.00;;;;;;;;;;1735227;28;20261;-81
2024/01/18 06:03:30;;;;;;;1.45;0.98;;;;;;;;;;1734916;28;20203;-78
2024/01/18 06:04:21;;;;;;;1.73;1.00;;;;;;;;;;1735342;28;20203;-79
2024/01/18 06:05:14;;;;;;;1.02;0.93;;;;;;;;;;1735249;28;20266;-78
2024/01/18 06:06:05;;;;;;;1.42;1.00;;;;;;;;;;1735273;28;20215;-79
2024/01/18 06:06:56;;;;;;;1.40;1.30;;;;;;;;;;1735276;28;20456;-78
2024/01/18 06:07:49;;;;;;;1.10;0.98;;;;;;;;;;1735198;28;20196;-78
2024/01/18 06:08:40;;;;;;;2.00;1.20;;;;;;;;;;1735002;28;20639;-77
2024/01/18 06:09:31;;;;;;;1.88;1.20;;;;;;;;;;1731590;28;20192;-78
2024/01/18 06:10:23;;;;;;;1.33;1.15;;;;;;;;;;1735138;28;20204;-77
2024/01/18 06:11:14;;;;;;;1.38;1.20;;;;;;;;;;1735279;28;20207;-78
2024/01/18 06:12:07;;;;;;;1.30;1.17;;;;;;;;;;1735373;28;20200;-78
2024/01/18 06:12:58;;;;;;;1.48;1.20;;;;;;;;;;1735636;28;20349;-79
2024/01/18 06:13:50;;;;;;;2.05;1.58;;;;;;;;;;1728515;28;20232;-79
2024/01/18 06:14:42;;;;;;;2.28;1.40;;;;;;;;;;1729834;28;20204;-78
2024/01/18 06:15:35;;;;;;;3.05;1.30;;;;;;;;;;1735473;28;20234;-78
2024/01/18 06:16:26;;;;;;;2.13;1.42;;;;;;;;;;1735552;28;20208;-78
2024/01/18 06:17:17;;;;;;;3.97;1.20;;;;;;;;;;1735101;28;20196;-78
2024/01/18 06:18:09;;;;;;;1.75;1.10;;;;;;;;;;1735500;28;20573;-78
2024/01/18 06:19:00;;;;;;;1.02;0.85;;;;;;;;;;1735299;28;20239;-78
2024/01/18 06:19:53;;;;;;;1.60;1.15;;;;;;;;;;1734959;28;20649;-78
2024/01/18 06:20:44;;;;;;;3.53;1.23;;;;;;;;;;1735501;28;20682;-80
2024/01/18 06:21:35;;;;;;;4.65;1.35;;;;;;;;;;1735362;28;20203;-80
2024/01/18 06:22:27;;;;;;;5.13;1.35;;;;;;;;;;1735422;28;20202;-81
2024/01/18 06:23:18;;;;;;;3.17;1.05;;;;;;;;;;1736410;28;20207;-79
2024/01/18 06:24:09;;;;;;;1.80;0.98;;;;;;;;;;1735558;28;20649;-80
2024/01/18 06:25:01;;;;;;;1.20;1.10;;;;;;;;;;1735721;28;20685;-81
2024/01/18 06:25:52;;;;;;;1.38;1.00;;;;;;;;;;1735203;28;20552;-80
2024/01/18 06:26:43;;;;;;;1.63;1.20;;;;;;;;;;1735018;28;20253;-81
2024/01/18 06:27:35;;;;;;;1.45;1.10;;;;;;;;;;1728486;28;20200;-80
2024/01/18 06:28:26;;;;;;;2.65;1.15;;;;;;;;;;1730507;28;20223;-80
2024/01/18 06:29:17;;;;;;;1.67;1.40;;;;;;;;;;1735500;28;20196;-78
2024/01/18 06:30:10;;;;;;;1.63;1.40;;;;;;;;;;1735038;28;20200;-78
2024/01/18 06:31:03;;;;;;;2.45;1.75;;;;;;;;;;1735547;28;20243;-80
2024/01/18 06:31:54;;;;;;;1.42;0.95;;;;;;;;;;1735326;28;20214;-81
2024/01/18 06:32:46;;;;;;;1.63;1.23;;;;;;;;;;1735273;28;20315;-79
2024/01/18 06:33:37;;;;;;;5.97;1.80;;;;;;;;;;1735274;28;20286;-78
2024/01/18 06:34:28;;;;;;;2.72;1.80;;;;;;;;;;1735309;28;20203;-78
2024/01/18 06:35:20;;;;;;;1.90;1.80;;;;;;;;;;1735311;28;20581;-79
2024/01/18 06:36:12;;;;;;;2.67;1.63;;;;;;;;;;1734963;28;20200;-79
2024/01/18 06:37:05;;;;;;;4.80;1.95;;;;;;;;;;1735359;28;20254;-79
2024/01/18 06:37:56;;;;;;;2.00;1.40;;;;;;;;;;1735458;28;20290;-79
2024/01/18 06:38:48;;;;;;;1.50;1.33;;;;;;;;;;1734891;28;20226;-80
2024/01/18 06:39:40;;;;;;;3.05;1.20;;;;;;;;;;1735012;28;20200;-79
2024/01/18 06:40:31;;;;;;;2.65;1.55;;;;;;;;;;1735088;28;20200;-80
2024/01/18 06:41:22;;;;;;;1.70;1.10;;;;;;;;;;1735341;28;20208;-79
2024/01/18 06:42:16;;;;;;;1.30;0.90;;;;;;;;;;1735386;28;20640;-78
2024/01/18 06:43:07;;;;;;;0.82;0.77;;;;;;;;;;1735249;28;20291;-79
2024/01/18 06:43:59;;;;;;;0.90;0.77;;;;;;;;;;1735145;28;20200;-79
2024/01/18 06:44:51;;;;;;;1.05;0.80;;;;;;;;;;1735360;28;20208;-80
2024/01/18 06:45:42;;;;;;;1.20;0.88;;;;;;;;;;1734906;28;20656;-79
2024/01/18 06:46:36;;;;;;;1.08;0.80;;;;;;;;;;1735272;28;20673;-79
2024/01/18 06:47:27;;;;;;;10.52;5.88;;;;;;;;;;1735011;28;20204;-78
2024/01/18 06:48:18;;;;;;;6.53;5.95;;;;;;;;;;1735336;28;20283;-80
2024/01/18 06:49:11;;;;;;;7.20;6.57;;;;;;;;;;1734863;28;20310;-78
2024/01/18 06:50:03;;;;;;;7.30;6.55;;;;;;;;;;1734684;28;20215;-79
2024/01/18 06:50:54;;;;;;;7.18;6.57;;;;;;;;;;1734975;28;20250;-78
2024/01/18 06:51:46;;;;;;;7.32;6.65;;;;;;;;;;1734917;28;20269;-83
2024/01/18 06:52:37;;;;;;;6.40;5.85;;;;;;;;;;1731634;28;20672;-83
2024/01/18 06:53:28;;;;;;;7.30;6.70;;;;;;;;;;1735480;28;20200;-83
2024/01/18 06:54:22;;;;;;;6.43;5.93;;;;;;;;;;1735683;28;20204;-83
2024/01/18 06:55:13;;;;;;;6.60;6.00;;;;;;;;;;1735900;28;20200;-83
2024/01/18 06:56:11;;;;;;;6.15;5.65;;;;;;;;;;1735904;28;20219;-83
2024/01/18 06:57:03;;;;;;;6.18;5.68;;;;;;;;;;1735734;28;20227;-85
2024/01/18 06:57:55;;;;;;;6.55;5.97;;;;;;;;;;1735606;28;20195;-82
2024/01/18 06:58:46;;;;;;;6.32;5.82;;;;;;;;;;1735630;28;20235;-85
2024/01/18 06:59:43;;;;;;;5.63;5.13;;;;;;;;;;1735802;28;20204;-85
2024/01/18 07:00:35;;;;;;;5.68;5.07;;;;;;;;;;1734677;28;20657;-85
2024/01/18 07:01:26;;;;;;;4.75;4.38;;;;;;;;;;1732984;28;20234;-84
2024/01/18 07:02:19;;;;;;;4.85;4.40;;;;;;;;;;1735447;28;20680;-86
2024/01/18 07:03:12;;;;;;;4.60;4.30;;;;;;;;;;1735928;28;20200;-83
2024/01/18 07:04:03;;;;;;;4.15;3.85;;;;;;;;;;1735431;28;20188;-82
2024/01/18 07:04:56;;;;;;;4.32;4.00;;;;;;;;;;1735119;28;20285;-82
2024/01/18 07:05:48;;;;;;;3.55;3.25;;;;;;;;;;1737009;28;20203;-83
2024/01/18 07:06:40;;;;;;;3.70;3.40;;;;;;;;;;1736997;28;20295;-83
2024/01/18 07:07:32;;;;;;;4.00;3.70;;;;;;;;;;1737466;28;20204;-83
2024/01/18 07:08:24;;;;;;;3.70;3.38;;;;;;;;;;1728853;28;20212;-83
2024/01/18 07:09:16;;;;;;;3.63;3.33;;;;;;;;;;1729115;28;20642;-83
2024/01/18 07:10:07;;;;;;;3.33;3.13;;;;;;;;;;1733541;28;20203;-83
2024/01/18 07:10:59;;;;;;;6.70;4.13;;;;;;;;;;1737660;28;20204;-83
2024/01/18 07:11:50;;;;;;;4.68;3.95;;;;;;;;;;1737771;28;20211;-83
2024/01/18 07:12:42;;;;;;;5.75;4.40;;;;;;;;;;1737226;28;20192;-83
2024/01/18 07:13:34;;;;;;;3.80;3.50;;;;;;;;;;1737427;28;20202;-83
2024/01/18 07:14:25;;;;;;;3.42;3.13;;;;;;;;;;1737410;28;20204;-83
2024/01/18 07:15:16;;;;;;;3.97;3.22;;;;;;;;;;1736988;28;20203;-83
2024/01/18 07:16:08;;;;;;;4.35;3.45;;;;;;;;;;1735830;28;20192;-81
2024/01/18 07:16:59;;;;;;;4.10;3.17;;;;;;;;;;1737209;28;20215;-82
2024/01/18 07:17:52;;;;;;;3.42;3.17;;;;;;;;;;1737478;28;20206;-82
2024/01/18 07:18:44;;;;;;;3.30;3.10;;;;;;;;;;1737630;28;20227;-82
2024/01/18 07:19:35;;;;;;;3.28;3.08;;;;;;;;;;1738149;28;20203;-82
2024/01/18 07:20:27;;;;;;;5.13;3.10;;;;;;;;;;1736384;28;20214;-82
2024/01/18 07:21:18;;;;;;;3.33;3.03;;;;;;;;;;1737320;28;20207;-82
2024/01/18 07:22:10;;;;;;;3.42;3.13;;;;;;;;;;1734972;28;20204;-82
2024/01/18 07:23:02;;;;;;;8.45;3.00;;;;;;;;;;1735778;28;20200;-82
2024/01/18 07:23:53;;;;;;;4.10;3.30;;;;;;;;;;1735126;28;20208;-83
2024/01/18 07:24:45;;;;;;;3.50;3.13;;;;;;;;;;1737386;28;20199;-82
2024/01/18 07:25:36;;;;;;;2.90;2.70;;;;;;;;;;1736872;28;20212;-83
2024/01/18 07:26:27;;;;;;;3.50;3.20;;;;;;;;;;1736823;28;20269;-82
2024/01/18 07:27:19;;;;;;;3.50;3.20;;;;;;;;;;1737511;28;20212;-83
2024/01/18 07:28:10;;;;;;;3.25;3.03;;;;;;;;;;1737487;28;20211;-83
2024/01/18 07:29:02;;;;;;;3.47;3.08;;;;;;;;;;1736802;28;20216;-82
2024/01/18 07:29:53;;;;;;;3.53;3.20;;;;;;;;;;1737051;28;20208;-82
2024/01/18 07:30:45;;;;;;;3.28;3.08;;;;;;;;;;1737701;28;20576;-82
2024/01/18 07:31:36;;;;;;;2.78;2.58;;;;;;;;;;1737723;28;20577;-82
2024/01/18 07:32:27;;;;;;;3.33;3.03;;;;;;;;;;1736934;28;20199;-83
2024/01/18 07:33:21;;;;;;;3.15;2.88;;;;;;;;;;1736538;28;20532;-84
2024/01/18 07:34:12;;;;;;;3.30;3.00;;;;;;;;;;1736654;28;20246;-84
2024/01/18 07:35:04;;;;;;;4.43;2.88;;;;;;;;;;1737212;28;20211;-84
2024/01/18 07:35:55;;;;;;;4.15;3.75;;;;;;;;;;1737589;28;20200;-84
2024/01/18 07:36:47;;;;;;;2.97;2.78;;;;;;;;;;1737233;28;20200;-84
2024/01/18 07:37:39;;;;;;;3.33;3.03;;;;;;;;;;1737128;28;20628;-83
2024/01/18 07:38:30;;;;;;;3.40;3.10;;;;;;;;;;1737212;28;20216;-83
2024/01/18 07:39:21;;;;;;;3.47;3.15;;;;;;;;;;1737444;28;20230;-84
2024/01/18 07:40:13;;;;;;;2.83;2.55;;;;;;;;;;1736560;28;20200;-84
2024/01/18 07:41:04;;;;;;;5.07;2.88;;;;;;;;;;1737603;28;20688;-85
2024/01/18 07:41:55;;;;;;;2.80;2.60;;;;;;;;;;1736568;28;20220;-84
2024/01/18 07:42:47;;;;;;;3.90;3.15;;;;;;;;;;1737039;28;20199;-84
2024/01/18 07:43:39;;;;;;;4.10;3.20;;;;;;;;;;1737194;28;20202;-85
2024/01/18 07:44:31;;;;;;;3.00;2.55;;;;;;;;;;1730612;28;20201;-85
2024/01/18 07:45:23;;;;;;;3.20;2.90;;;;;;;;;;1737077;28;20207;-84
2024/01/18 07:46:15;;;;;;;4.10;2.67;;;;;;;;;;1736344;28;20199;-83
2024/01/18 07:47:09;;;;;;;3.60;2.85;;;;;;;;;;1737252;28;20223;-83
2024/01/18 07:48:02;;;;;;;3.75;3.00;;;;;;;;;;1737482;28;20220;-84
2024/01/18 07:48:54;;;;;;;3.70;3.00;;;;;;;;;;1737279;28;20227;-83
2024/01/18 07:49:46;;;;;;;3.20;2.90;;;;;;;;;;1737186;28;20211;-83
2024/01/18 07:50:38;;;;;;;2.83;2.63;;;;;;;;;;1736026;28;20207;-84
2024/01/18 07:51:29;;;;;;;3.08;2.80;;;;;;;;;;1737040;28;20696;-84
2024/01/18 07:52:20;;;;;;;5.40;2.60;;;;;;;;;;1736812;28;20207;-85
2024/01/18 07:53:13;;;;;;;4.05;2.70;;;;;;;;;;1735687;28;20202;-82
2024/01/18 07:54:04;;;;;;;5.10;2.58;;;;;;;;;;1736264;28;20219;-83
2024/01/18 07:54:55;;;;;;;2.60;2.38;;;;;;;;;;1736185;28;20210;-83
2024/01/18 07:55:47;;;;;;;2.60;2.40;;;;;;;;;;1736529;28;20708;-85
2024/01/18 07:56:38;;;;;;;4.65;2.90;;;;;;;;;;1736295;28;20207;-84
2024/01/18 07:57:29;;;;;;;3.53;2.85;;;;;;;;;;1736760;28;20641;-82
2024/01/18 07:58:21;;;;;;;3.08;2.33;;;;;;;;;;1735534;28;20204;-84
2024/01/18 07:59:13;;;;;;;2.85;2.60;;;;;;;;;;1736294;28;20279;-84
2024/01/18 08:00:04;;;;;;;3.53;2.03;;;;;;;;;;1735127;28;20246;-83
2024/01/18 08:00:56;;;;;;;3.17;2.88;;;;;;;;;;1735750;28;20199;-84
2024/01/18 08:01:47;;;;;;;2.63;2.42;;;;;;;;;;1736529;28;20223;-83
2024/01/18 08:02:38;;;;;;;4.15;2.63;;;;;;;;;;1736114;28;20191;-84
2024/01/18 08:03:30;;;;;;;3.00;2.38;;;;;;;;;;1735909;28;20200;-83
2024/01/18 08:04:23;;;;;;;3.30;2.88;;;;;;;;;;1735960;28;20200;-83
2024/01/18 08:05:15;;;;;;;2.60;2.40;;;;;;;;;;1736602;28;20665;-83
2024/01/18 08:06:06;;;;;;;3.03;2.50;;;;;;;;;;1736135;28;20299;-84
2024/01/18 08:06:58;;;;;;;2.80;2.60;;;;;;;;;;1735518;28;20664;-83
2024/01/18 08:07:49;;;;;;;3.33;3.05;;;;;;;;;;1736154;28;20580;-83
2024/01/18 08:08:41;;;;;;;3.92;3.00;;;;;;;;;;1735998;28;20257;-83
2024/01/18 08:09:33;;;;;;;2.90;2.70;;;;;;;;;;1736567;28;20281;-83
2024/01/18 08:10:24;;;;;;;3.55;2.63;;;;;;;;;;1734188;28;20203;-81
2024/01/18 08:11:16;;;;;;;3.00;2.70;;;;;;;;;;1734757;28;20610;-81
2024/01/18 08:12:07;;;;;;;2.90;2.60;;;;;;;;;;1735283;28;20234;-80
2024/01/18 08:13:00;;;;;;;4.90;2.55;;;;;;;;;;1734933;28;20235;-80
2024/01/18 08:13:52;;;;;;;3.13;2.55;;;;;;;;;;1734655;28;20195;-80
2024/01/18 08:14:44;;;;;;;3.00;2.67;;;;;;;;;;1734291;28;20653;-80
2024/01/18 08:15:36;;;;;;;3.15;2.85;;;;;;;;;;1734675;28;20273;-82
2024/01/18 08:16:27;;;;;;;3.00;2.78;;;;;;;;;;1734172;28;20200;-80
2024/01/18 08:17:18;;;;;;;3.45;2.83;;;;;;;;;;1734692;28;20206;-82
2024/01/18 08:18:10;;;;;;;2.45;2.28;;;;;;;;;;1734295;28;20195;-82
2024/01/18 08:19:01;;;;;;;3.28;3.00;;;;;;;;;;1729979;28;20246;-83
2024/01/18 08:19:54;;;;;;;2.97;2.78;;;;;;;;;;1733695;28;20214;-82
2024/01/18 08:20:46;;;;;;;3.20;2.85;;;;;;;;;;1734553;28;20207;-82
2024/01/18 08:21:43;;;;;;;2.95;2.75;;;;;;;;;;1733271;28;20208;-82
2024/01/18 08:22:34;;;;;;;3.90;2.80;;;;;;;;;;1729212;28;20204;-83
2024/01/18 08:23:26;;;;;;;3.47;3.17;;;;;;;;;;1730554;28;20204;-82
2024/01/18 08:24:17;;;;;;;3.70;3.05;;;;;;;;;;1728836;28;20207;-82
2024/01/18 08:25:10;;;;;;;4.22;2.85;;;;;;;;;;1732262;28;20571;-82
2024/01/18 08:26:02;;;;;;;2.53;2.33;;;;;;;;;;1731313;28;20210;-82
2024/01/18 08:26:53;;;;;;;3.35;3.05;;;;;;;;;;1734180;28;20214;-82
2024/01/18 08:27:44;;;;;;;3.85;3.20;;;;;;;;;;1734471;28;20188;-82
2024/01/18 08:28:36;;;;;;;2.70;2.50;;;;;;;;;;1733908;28;20195;-82
2024/01/18 08:29:27;;;;;;;2.80;2.60;;;;;;;;;;1729742;28;20192;-81
2024/01/18 08:30:19;;;;;;;2.83;2.60;;;;;;;;;;1730479;28;20207;-82
2024/01/18 08:31:11;;;;;;;2.60;2.40;;;;;;;;;;1733598;28;20206;-82
2024/01/18 08:32:03;;;;;;;3.10;2.80;;;;;;;;;;1733822;28;20641;-82
2024/01/18 08:32:55;;;;;;;3.00;2.42;;;;;;;;;;1734397;28;20207;-82
2024/01/18 08:33:46;;;;;;;2.70;2.50;;;;;;;;;;1734472;28;20575;-82
2024/01/18 08:34:38;;;;;;;2.70;2.50;;;;;;;;;;1734170;28;20254;-83
2024/01/18 08:35:31;;;;;;;2.70;2.50;;;;;;;;;;1734387;28;20207;-82
2024/01/18 08:36:22;;;;;;;4.65;3.88;;;;;;;;;;1734507;28;20207;-81
2024/01/18 08:37:14;;;;;;;5.60;3.45;;;;;;;;;;1734335;28;20196;-82
2024/01/18 08:38:06;;;;;;;5.95;3.70;;;;;;;;;;1734372;28;20211;-83
2024/01/18 08:38:57;;;;;;;3.25;2.95;;;;;;;;;;1734276;28;20228;-83
2024/01/18 08:39:48;;;;;;;3.15;2.45;;;;;;;;;;1734181;28;20541;-82
2024/01/18 08:40:40;;;;;;;2.95;2.55;;;;;;;;;;1734290;28;20200;-82
2024/01/18 08:41:31;;;;;;;8.05;4.85;;;;;;;;;;1734431;28;20203;-82
2024/01/18 08:42:23;;;;;;;5.70;4.28;;;;;;;;;;1733948;28;20653;-82
2024/01/18 08:43:14;;;;;;;4.60;3.80;;;;;;;;;;1734124;28;20578;-82
2024/01/18 08:44:06;;;;;;;4.35;3.50;;;;;;;;;;1734098;28;20211;-82
2024/01/18 08:44:58;;;;;;;3.65;3.10;;;;;;;;;;1734438;28;20200;-82
2024/01/18 08:45:49;;;;;;;3.00;2.70;;;;;;;;;;1734368;28;20653;-82
2024/01/18 08:46:40;;;;;;;2.83;2.53;;;;;;;;;;1734402;28;20200;-82
2024/01/18 08:47:32;;;;;;;3.40;2.60;;;;;;;;;;1734428;28;20337;-82
2024/01/18 08:48:23;;;;;;;2.72;2.53;;;;;;;;;;1734272;28;20265;-82
2024/01/18 08:49:16;;;;;;;3.03;2.45;;;;;;;;;;1734436;28;20661;-82
2024/01/18 08:50:07;;;;;;;2.78;2.45;;;;;;;;;;1734085;28;20828;-82
2024/01/18 08:51:02;;;;;;;3.78;2.50;;;;;;;;;;1734539;28;20261;-82
2024/01/18 08:51:54;;;;;;;2.60;2.40;;;;;;;;;;1734370;28;20240;-82
2024/01/18 08:52:45;;;;;;;2.22;2.03;;;;;;;;;;1734539;28;20215;-82
2024/01/18 08:53:36;;;;;;;3.10;2.80;;;;;;;;;;1734163;28;20207;-82
2024/01/18 08:54:28;;;;;;;3.15;2.78;;;;;;;;;;1734308;28;20714;-82
2024/01/18 08:55:19;;;;;;;2.20;2.00;;;;;;;;;;1734321;28;20679;-82
2024/01/18 08:56:12;;;;;;;2.30;2.10;;;;;;;;;;1734327;28;20250;-82
2024/01/18 08:57:04;;;;;;;2.80;2.00;;;;;;;;;;1734225;28;20636;-81
2024/01/18 08:57:55;;;;;;;1.95;1.85;;;;;;;;;;1734578;28;20204;-83
2024/01/18 08:58:46;;;;;;;2.35;2.15;;;;;;;;;;1734309;28;20224;-82
2024/01/18 08:59:38;;;;;;;2.40;2.20;;;;;;;;;;1734421;28;20314;-82
2024/01/18 09:00:30;;;;;;;2.50;2.30;;;;;;;;;;1730738;28;20197;-83
2024/01/18 09:01:21;;;;;;;2.40;2.20;;;;;;;;;;1732192;28;20367;-82
2024/01/18 09:02:13;;;;;;;2.85;2.50;;;;;;;;;;1727957;28;20565;-83
2024/01/18 09:03:05;;;;;;;2.47;2.28;;;;;;;;;;1733479;28;20220;-82
2024/01/18 09:03:56;;;;;;;2.50;2.30;;;;;;;;;;1735738;28;20218;-82
2024/01/18 09:04:48;;;;;;;3.45;2.42;;;;;;;;;;1735693;28;20584;-82
2024/01/18 09:05:39;;;;;;;2.80;2.60;;;;;;;;;;1735719;28;20208;-82
2024/01/18 09:06:31;;;;;;;2.63;2.42;;;;;;;;;;1735729;28;20199;-83
2024/01/18 09:07:23;;;;;;;2.28;2.17;;;;;;;;;;1732504;28;20207;-82
2024/01/18 09:08:14;;;;;;;2.83;2.63;;;;;;;;;;1732801;28;20662;-81
2024/01/18 09:09:09;;;;;;;2.58;2.38;;;;;;;;;;1732448;28;20265;-83
2024/01/18 09:10:01;;;;;;;2.35;2.15;;;;;;;;;;1731692;28;20195;-82
2024/01/18 09:10:52;;;;;;;2.60;2.30;;;;;;;;;;1732315;28;20206;-82
2024/01/18 09:11:43;;;;;;;2.67;2.47;;;;;;;;;;1732247;28;20254;-82
2024/01/18 09:12:35;;;;;;;2.90;2.50;;;;;;;;;;1734611;28;20258;-82
2024/01/18 09:13:26;;;;;;;3.00;2.80;;;;;;;;;;1731168;28;20206;-82
2024/01/18 09:14:18;;;;;;;2.88;2.67;;;;;;;;;;1733650;28;20290;-83
2024/01/18 09:15:10;;;;;;;3.10;2.33;;;;;;;;;;1732566;28;20196;-82
2024/01/18 09:16:01;;;;;;;4.55;4.15;;;;;;;;;;1732487;28;20191;-82
2024/01/18 09:16:53;;;;;;;6.35;4.43;;;;;;;;;;1732398;28;20193;-83
2024/01/18 09:17:44;;;;;;;5.50;4.38;;;;;;;;;;1731439;28;20203;-81
2024/01/18 09:18:36;;;;;;;3.35;3.05;;;;;;;;;;1731063;28;20203;-82
2024/01/18 09:19:30;;;;;;;2.88;2.67;;;;;;;;;;1732434;28;20205;-82
2024/01/18 09:20:22;;;;;;;2.85;2.60;;;;;;;;;;1733922;28;20724;-82
2024/01/18 09:21:13;;;;;;;3.22;3.03;;;;;;;;;;1731065;28;20199;-82
2024/01/18 09:22:06;;;;;;;2.63;2.42;;;;;;;;;;1733443;28;20196;-82
2024/01/18 09:22:58;;;;;;;2.85;2.65;;;;;;;;;;1731744;28;20197;-82
2024/01/18 09:23:50;;;;;;;3.75;3.45;;;;;;;;;;1731912;28;20209;-82
2024/01/18 09:24:43;;;;;;;4.18;3.78;;;;;;;;;;1732553;28;20300;-82
2024/01/18 09:25:34;;;;;;;5.40;5.00;;;;;;;;;;1732099;28;20253;-83
2024/01/18 09:26:26;;;;;;;6.88;6.32;;;;;;;;;;1730110;28;20266;-82
2024/01/18 09:27:17;;;;;;;5.55;5.05;;;;;;;;;;1728688;28;20196;-82
2024/01/18 09:28:10;;;;;;;3.92;3.63;;;;;;;;;;1728739;28;20200;-82
2024/01/18 09:29:02;;;;;;;5.00;4.60;;;;;;;;;;1732676;28;20708;-82
2024/01/18 09:29:54;;;;;;;4.53;4.13;;;;;;;;;;1731601;28;20247;-82
2024/01/18 09:30:45;;;;;;;4.30;4.00;;;;;;;;;;1731552;28;20192;-82
2024/01/18 09:31:36;;;;;;;3.70;3.50;;;;;;;;;;1732481;28;20234;-83
2024/01/18 09:32:28;;;;;;;2.90;2.70;;;;;;;;;;1732394;28;20203;-82
2024/01/18 09:33:19;;;;;;;3.00;2.80;;;;;;;;;;1732742;28;20211;-82
2024/01/18 09:34:11;;;;;;;3.55;3.35;;;;;;;;;;1732651;28;20242;-82
2024/01/18 09:35:05;;;;;;;3.30;3.10;;;;;;;;;;1732614;28;20224;-82
2024/01/18 09:35:56;;;;;;;3.10;2.90;;;;;;;;;;1732639;28;20587;-83
2024/01/18 09:36:47;;;;;;;3.90;3.60;;;;;;;;;;1732661;28;20283;-82
2024/01/18 09:37:41;;;;;;;3.30;3.05;;;;;;;;;;1732433;28;20196;-82
2024/01/18 09:38:33;;;;;;;3.85;3.55;;;;;;;;;;1732381;28;20669;-82
2024/01/18 09:39:24;;;;;;;10.43;9.52;;;;;;;;;;1732621;28;20204;-82
2024/01/18 09:40:16;;;;;;;7.38;6.68;;;;;;;;;;1731616;28;20629;-82
2024/01/18 09:41:08;;;;;;;4.22;3.83;;;;;;;;;;1732607;28;20196;-82
2024/01/18 09:42:01;;;;;;;3.40;3.15;;;;;;;;;;1731508;28;20192;-82
2024/01/18 09:42:53;;;;;;;2.72;2.53;;;;;;;;;;1733857;28;20351;-82
2024/01/18 09:43:45;;;;;;;2.97;2.67;;;;;;;;;;1733055;28;20199;-82
2024/01/18 09:44:39;;;;;;;2.35;2.25;;;;;;;;;;1732533;28;20211;-81
2024/01/18 09:45:33;;;;;;;1.85;1.75;;;;;;;;;;1732605;28;20220;-82
2024/01/18 09:46:25;;;;;;;1.75;1.40;;;;;;;;;;1731866;28;20258;-83
2024/01/18 09:47:16;;;;;;;1.45;1.35;;;;;;;;;;1732656;28;20193;-82
2024/01/18 09:48:08;;;;;;;2.38;1.60;;;;;;;;;;1732227;28;20203;-82
2024/01/18 09:48:59;;;;;;;1.75;1.65;;;;;;;;;;1732704;28;20216;-82
2024/01/18 09:49:52;;;;;;;2.40;2.30;;;;;;;;;;1731601;28;20272;-83
2024/01/18 09:50:44;;;;;;;2.00;1.88;;;;;;;;;;1734934;28;20223;-83
2024/01/18 09:51:35;;;;;;;1.90;1.80;;;;;;;;;;1731363;28;20249;-82
2024/01/18 09:52:27;;;;;;;2.30;2.10;;;;;;;;;;1734407;28;20290;-83
2024/01/18 09:53:20;;;;;;;2.45;1.80;;;;;;;;;;1731538;28;20196;-83
2024/01/18 09:54:11;;;;;;;2.30;2.10;;;;;;;;;;1734766;28;20231;-82
2024/01/18 09:55:04;;;;;;;1.83;1.73;;;;;;;;;;1734050;28;20735;-82
2024/01/18 09:55:57;;;;;;;2.97;2.10;;;;;;;;;;1736485;28;20656;-82
2024/01/18 09:56:52;;;;;;;1.80;1.70;;;;;;;;;;1731093;28;20231;-83
2024/01/18 09:57:48;;;;;;;1.70;1.60;;;;;;;;;;1734255;28;20191;-82
2024/01/18 09:58:39;;;;;;;2.38;1.58;;;;;;;;;;1731500;28;20204;-82
2024/01/18 09:59:32;;;;;;;2.13;1.77;;;;;;;;;;1735530;28;20198;-82
2024/01/18 10:00:26;;;;;;;1.30;1.20;;;;;;;;;;1737112;28;20211;-81
2024/01/18 10:01:20;;;;;;;2.03;1.30;;;;;;;;;;1738046;28;20578;-82
2024/01/18 10:02:12;;;;;;;1.20;1.10;;;;;;;;;;1737974;28;20622;-82
2024/01/18 10:03:04;;;;;;;1.30;1.20;;;;;;;;;;1735516;28;20258;-81
2024/01/18 10:03:56;;;;;;;1.00;0.90;;;;;;;;;;1734638;28;20199;-82
2024/01/18 10:04:47;;;;;;;1.20;1.10;;;;;;;;;;1734898;28;20208;-82
2024/01/18 10:05:39;;;;;;;1.20;1.10;;;;;;;;;;1735036;28;20191;-82
2024/01/18 10:06:30;;;;;;;1.10;1.00;;;;;;;;;;1734689;28;20208;-81
2024/01/18 10:07:23;;;;;;;1.10;1.00;;;;;;;;;;1734578;28;20202;-82
2024/01/18 10:08:14;;;;;;;1.80;1.33;;;;;;;;;;1734793;28;20207;-82
2024/01/18 10:09:10;;;;;;;1.50;1.15;;;;;;;;;;1734683;28;20227;-82
2024/01/18 10:10:01;;;;;;;1.30;1.10;;;;;;;;;;1728062;28;20205;-82
2024/01/18 10:10:52;;;;;;;1.15;1.02;;;;;;;;;;1728155;28;20208;-82
2024/01/18 10:11:46;;;;;;;1.05;0.95;;;;;;;;;;1733038;28;20212;-82
2024/01/18 10:12:37;;;;;;;1.30;1.20;;;;;;;;;;1734876;28;20234;-83
2024/01/18 10:13:29;;;;;;;1.77;1.10;;;;;;;;;;1732871;28;20644;-81
2024/01/18 10:14:38;;;;;;;1.30;1.10;;;;;;;;;;1734901;28;20215;-82
2024/01/18 10:15:32;;;;;;;1.25;1.00;;;;;;;;;;1737535;28;20235;-83
2024/01/18 10:16:27;;;;;;;2.15;1.77;;;;;;;;;;1735547;28;20299;-82
2024/01/18 10:17:21;;;;;;;1.83;1.52;;;;;;;;;;1734760;28;20649;-82
2024/01/18 10:18:14;;;;;;;1.10;1.00;;;;;;;;;;1732281;28;20497;-82
2024/01/18 10:19:05;;;;;;;1.25;1.15;;;;;;;;;;1732811;28;20234;-83
2024/01/18 10:19:57;;;;;;;1.10;1.00;;;;;;;;;;1733328;28;20196;-82
2024/01/18 10:20:49;;;;;;;1.20;1.10;;;;;;;;;;1733188;28;20245;-82
2024/01/18 10:21:41;;;;;;;1.20;1.00;;;;;;;;;;1733474;28;20200;-81
2024/01/18 10:22:32;;;;;;;1.45;1.17;;;;;;;;;;1734833;28;20199;-81
2024/01/18 10:23:25;;;;;;;1.30;1.20;;;;;;;;;;1734931;28;20249;-81
2024/01/18 10:24:17;;;;;;;31.05;19.77;;;;;;;;;;1731276;28;20224;-81
2024/01/18 10:25:11;;;;;;;15.52;9.00;;;;;;;;;;1734030;28;20338;-81
2024/01/18 10:26:03;;;;;;;3.15;2.28;;;;;;;;;;1731018;28;20605;-82
2024/01/18 10:27:01;;;;;;;8.25;4.35;;;;;;;;;;1733570;28;20208;-82
2024/01/18 10:27:52;;;;;;;1.80;1.42;;;;;;;;;;1732166;28;20231;-81
2024/01/18 10:28:44;;;;;;;1.40;1.30;;;;;;;;;;1732565;28;20227;-82
2024/01/18 10:29:36;;;;;;;1.60;1.50;;;;;;;;;;1731904;28;20225;-82
2024/01/18 10:30:27;;;;;;;1.33;1.20;;;;;;;;;;1732099;28;20202;-81
2024/01/18 10:31:19;;;;;;;1.10;1.00;;;;;;;;;;1731359;28;20204;-82
2024/01/18 10:32:10;;;;;;;1.92;1.40;;;;;;;;;;1731945;28;20569;-82
2024/01/18 10:33:01;;;;;;;1.50;1.20;;;;;;;;;;1732400;28;20639;-83
2024/01/18 10:33:53;;;;;;;1.08;0.80;;;;;;;;;;1732260;28;20202;-82
2024/01/18 10:34:46;;;;;;;1.33;1.00;;;;;;;;;;1732847;28;20242;-81
2024/01/18 10:35:37;;;;;;;1.38;1.10;;;;;;;;;;1724181;28;20209;-82
2024/01/18 10:36:29;;;;;;;1.60;1.17;;;;;;;;;;1725251;28;20200;-82
2024/01/18 10:37:20;;;;;;;3.15;1.05;;;;;;;;;;1729279;28;20685;-82
2024/01/18 10:38:12;;;;;;;1.05;0.95;;;;;;;;;;1733016;28;20715;-83
2024/01/18 10:39:14;;;;;;;1.23;1.00;;;;;;;;;;1732100;28;20213;-83
2024/01/18 10:40:10;;;;;;;0.90;0.80;;;;;;;;;;1732482;28;20210;-82
2024/01/18 10:41:02;;;;;;;0.88;0.85;;;;;;;;;;1735007;28;20199;-83
2024/01/18 10:41:54;;;;;;;1.10;0.90;;;;;;;;;;1734899;28;20230;-83
2024/01/18 10:42:45;;;;;;;0.82;0.80;;;;;;;;;;1734954;28;20680;-83
2024/01/18 10:43:38;;;;;;;1.45;1.00;;;;;;;;;;1734765;28;20199;-82
2024/01/18 10:44:30;;;;;;;1.10;0.73;;;;;;;;;;1735119;28;20207;-83
2024/01/18 10:45:21;;;;;;;0.90;0.75;;;;;;;;;;1735080;28;20191;-82
2024/01/18 10:46:14;;;;;;;1.00;0.90;;;;;;;;;;1734462;28;20211;-82
2024/01/18 10:47:07;;;;;;;0.80;0.80;;;;;;;;;;1734950;28;20604;-82
2024/01/18 10:47:59;;;;;;;0.80;0.80;;;;;;;;;;1734843;28;20192;-82
2024/01/18 10:48:53;;;;;;;2.05;0.88;;;;;;;;;;1734843;28;20274;-82
2024/01/18 10:49:45;;;;;;;1.05;0.95;;;;;;;;;;1730961;28;20204;-82
2024/01/18 10:50:37;;;;;;;0.80;0.75;;;;;;;;;;1731232;28;20199;-82
2024/01/18 10:51:29;;;;;;;1.15;0.93;;;;;;;;;;1732879;28;20207;-82
2024/01/18 10:52:20;;;;;;;1.15;1.05;;;;;;;;;;1733440;28;20211;-82
2024/01/18 10:53:13;;;;;;;1.00;0.90;;;;;;;;;;1728005;28;20590;-83
2024/01/18 10:54:05;;;;;;;0.90;0.88;;;;;;;;;;1731909;28;20708;-82
2024/01/18 10:54:57;;;;;;;1.13;1.02;;;;;;;;;;1733121;28;20235;-82
2024/01/18 10:55:50;;;;;;;1.10;0.80;;;;;;;;;;1733307;28;20687;-82
2024/01/18 10:56:41;;;;;;;1.10;1.00;;;;;;;;;;1732737;28;20207;-83
2024/01/18 10:57:33;;;;;;;1.05;0.95;;;;;;;;;;1735272;28;20231;-82
2024/01/18 10:58:26;;;;;;;1.05;0.95;;;;;;;;;;1734992;28;20210;-81
2024/01/18 10:59:17;;;;;;;2.13;1.08;;;;;;;;;;1734837;28;20203;-82
2024/01/18 11:00:08;;;;;;;3.40;3.03;;;;;;;;;;1734320;28;20208;-83
2024/01/18 11:01:00;;;;;;;1.30;1.20;;;;;;;;;;1734756;28;20684;-83
2024/01/18 11:01:52;;;;;;;1.30;1.20;;;;;;;;;;1735287;28;20203;-83
2024/01/18 11:02:45;;;;;;;1.65;1.08;;;;;;;;;;1735172;28;21001;-84
2024/01/18 11:03:37;;;;;;;1.10;1.00;;;;;;;;;;1735099;28;20630;-82
2024/01/18 11:04:30;;;;;;;1.30;1.20;;;;;;;;;;1735123;28;20546;-82
2024/01/18 11:05:22;;;;;;;1.33;1.10;;;;;;;;;;1735001;28;20230;-82
2024/01/18 11:06:14;;;;;;;1.30;1.20;;;;;;;;;;1734867;28;20632;-82
2024/01/18 11:07:06;;;;;;;1.30;1.20;;;;;;;;;;1734925;28;20211;-82
2024/01/18 11:07:58;;;;;;;3.03;1.20;;;;;;;;;;1734877;28;20208;-82
2024/01/18 11:08:50;;;;;;;1.77;1.67;;;;;;;;;;1734947;28;20228;-82
2024/01/18 11:09:41;;;;;;;1.80;1.70;;;;;;;;;;1735215;28;20211;-82
2024/01/18 11:10:34;;;;;;;1.40;1.30;;;;;;;;;;1733840;28;20219;-85
2024/01/18 11:11:26;;;;;;;1.33;1.23;;;;;;;;;;1734682;28;20316;-82